Time;durP1;ratioP1;P1;durP2;ratioP2;P2;SDS_P1;SDS_P2;PMS_P1;PMS_P2;Temp;Humidity;BMP_temperature;BMP_pressure;BME280_temperature;BME280_humidity;BME280_pressure;Samples;Min_cycle;Max_cycle;Signal;HPM_P1;HPM_P2
2023/05/24 00:00:45;;;;;;;17.73;3.50;;;18.00;66.20;;;;;;7381626;19;20013;-72
2023/05/24 00:03:15;;;;;;;19.27;3.53;;;18.00;66.10;;;;;;7381619;19;20002;-73
2023/05/24 00:05:45;;;;;;;13.18;3.13;;;18.10;66.10;;;;;;7381979;19;20003;-72
2023/05/24 00:08:14;;;;;;;15.48;3.15;;;18.10;66.50;;;;;;7381804;19;20013;-71
2023/05/24 00:10:43;;;;;;;16.00;3.15;;;18.10;66.20;;;;;;7402006;19;20010;-72
2023/05/24 00:13:14;;;;;;;16.92;3.60;;;18.10;66.30;;;;;;7380655;19;20600;-72
2023/05/24 00:15:45;;;;;;;16.50;3.47;;;18.10;66.10;;;;;;7381264;19;20242;-71
2023/05/24 00:18:16;;;;;;;19.55;4.00;;;17.80;66.30;;;;;;7381463;19;20024;-72
2023/05/24 00:20:45;;;;;;;22.50;3.90;;;17.90;66.90;;;;;;7383277;19;20034;-74
2023/05/24 00:23:13;;;;;;;24.75;4.68;;;17.80;66.80;;;;;;7381071;19;20251;-73
2023/05/24 00:25:42;;;;;;;16.10;3.28;;;17.90;67.00;;;;;;7402434;19;20006;-73
2023/05/24 00:28:11;;;;;;;16.02;3.20;;;17.90;66.90;;;;;;7380679;19;20067;-72
2023/05/24 00:30:39;;;;;;;18.50;3.50;;;17.80;66.90;;;;;;7380915;19;20078;-73
2023/05/24 00:33:11;;;;;;;22.23;3.78;;;17.80;67.20;;;;;;7379780;19;20078;-73
2023/05/24 00:35:39;;;;;;;19.15;3.55;;;17.80;67.20;;;;;;7380856;19;20070;-72
2023/05/24 00:38:08;;;;;;;17.55;3.53;;;17.60;67.70;;;;;;7380825;19;20006;-72
2023/05/24 00:40:37;;;;;;;18.17;3.67;;;17.70;67.80;;;;;;7402034;19;20020;-73
2023/05/24 00:43:05;;;;;;;15.25;3.70;;;17.70;67.80;;;;;;7379600;19;20249;-72
2023/05/24 00:45:34;;;;;;;27.95;3.88;;;17.70;68.00;;;;;;7379889;19;20011;-72
2023/05/24 00:48:04;;;;;;;17.30;3.35;;;17.60;68.10;;;;;;7380761;19;20063;-72
2023/05/24 00:50:35;;;;;;;21.33;3.42;;;17.60;68.30;;;;;;7379663;19;20023;-72
2023/05/24 00:53:04;;;;;;;17.42;4.10;;;17.60;68.40;;;;;;7380584;19;20023;-73
2023/05/24 00:55:35;;;;;;;24.67;4.43;;;17.60;68.60;;;;;;7401735;19;20062;-72
2023/05/24 00:58:04;;;;;;;16.70;3.60;;;17.50;68.60;;;;;;7379895;19;20003;-71
2023/05/24 01:00:34;;;;;;;23.38;4.07;;;17.40;68.80;;;;;;7379451;19;20006;-71
2023/05/24 01:03:02;;;;;;;24.08;3.65;;;17.40;69.00;;;;;;7378680;19;20023;-70
2023/05/24 01:05:32;;;;;;;21.48;4.45;;;17.40;69.30;;;;;;7379740;19;20019;-72
2023/05/24 01:08:13;;;;;;;21.65;4.63;;;17.30;69.30;;;;;;7400998;19;20007;-71
2023/05/24 01:10:50;;;;;;;26.42;4.47;;;17.20;69.40;;;;;;7379331;19;20026;-71
2023/05/24 01:13:43;;;;;;;23.15;4.43;;;17.30;70.00;;;;;;7380181;19;19999;-70
2023/05/24 01:16:16;;;;;;;15.48;4.47;;;17.10;70.10;;;;;;7381950;19;20010;-72
2023/05/24 01:18:49;;;;;;;20.83;3.33;;;17.20;70.20;;;;;;7379853;19;20553;-71
2023/05/24 01:21:37;;;;;;;23.90;4.65;;;17.20;70.00;;;;;;7379306;19;20259;-71
2023/05/24 01:24:21;;;;;;;23.67;4.53;;;17.30;70.10;;;;;;7380218;19;20014;-71
2023/05/24 01:27:07;;;;;;;22.52;4.30;;;17.30;70.20;;;;;;7380438;19;20003;-71
2023/05/24 01:29:36;;;;;;;25.23;4.50;;;17.30;70.30;;;;;;7379657;19;20007;-72
2023/05/24 01:32:06;;;;;;;26.38;4.05;;;17.10;70.40;;;;;;7377443;19;20025;-73
2023/05/24 01:34:34;;;;;;;28.35;4.43;;;17.00;70.90;;;;;;7400714;19;20020;-73
2023/05/24 01:37:03;;;;;;;20.05;3.55;;;16.80;71.20;;;;;;7379257;19;20007;-72
2023/05/24 01:39:32;;;;;;;21.77;4.68;;;16.90;71.60;;;;;;7377500;19;20266;-73
2023/05/24 01:42:10;;;;;;;23.23;3.92;;;16.90;71.40;;;;;;7377755;19;19999;-72
2023/05/24 01:44:44;;;;;;;17.77;4.95;;;16.90;71.60;;;;;;7377345;19;20429;-72
2023/05/24 01:47:23;;;;;;;24.95;4.22;;;16.90;71.40;;;;;;7378440;19;20385;-73
2023/05/24 01:49:55;;;;;;;18.73;4.28;;;16.90;71.40;;;;;;7399667;19;20007;-73
2023/05/24 01:52:29;;;;;;;14.25;4.30;;;16.90;71.50;;;;;;7377725;19;20062;-73
2023/05/24 01:54:59;;;;;;;21.52;4.20;;;16.80;71.70;;;;;;7377752;19;20309;-73
2023/05/24 01:57:32;;;;;;;22.55;3.95;;;16.70;71.90;;;;;;7378408;19;20003;-74
2023/05/24 02:00:04;;;;;;;22.15;3.88;;;16.70;72.30;;;;;;7378377;19;20219;-72
2023/05/24 02:02:32;;;;;;;16.17;4.20;;;16.70;72.30;;;;;;7377937;19;20388;-72
2023/05/24 02:05:01;;;;;;;19.73;4.63;;;16.80;72.20;;;;;;7399141;19;20064;-73
2023/05/24 02:07:30;;;;;;;17.05;4.38;;;16.90;72.10;;;;;;7399915;19;20006;-72
2023/05/24 02:09:59;;;;;;;27.50;4.60;;;16.90;73.00;;;;;;7377225;19;20082;-72
2023/05/24 02:12:30;;;;;;;25.00;4.45;;;16.90;72.00;;;;;;7379706;19;20032;-71
2023/05/24 02:14:59;;;;;;;20.30;4.20;;;16.80;71.90;;;;;;7377632;19;20227;-71
2023/05/24 02:17:27;;;;;;;23.38;5.25;;;16.80;72.20;;;;;;7377785;19;20013;-71
2023/05/24 02:19:56;;;;;;;19.60;4.00;;;16.80;72.50;;;;;;7396983;19;20062;-71
2023/05/24 02:22:25;;;;;;;23.05;4.25;;;16.70;72.40;;;;;;7376855;19;20067;-71
2023/05/24 02:24:54;;;;;;;23.10;4.30;;;16.80;72.70;;;;;;7377472;19;20011;-71
2023/05/24 02:27:22;;;;;;;27.73;4.63;;;16.70;72.60;;;;;;7377546;19;20007;-71
2023/05/24 02:29:54;;;;;;;17.73;3.65;;;16.60;72.70;;;;;;7377656;19;20302;-71
2023/05/24 02:32:23;;;;;;;23.50;4.53;;;16.50;73.20;;;;;;7376983;19;20369;-71
2023/05/24 02:34:52;;;;;;;26.70;4.13;;;16.50;72.90;;;;;;7397454;19;20032;-71
2023/05/24 02:37:20;;;;;;;19.52;4.38;;;16.60;73.20;;;;;;7376410;19;20042;-71
2023/05/24 02:39:49;;;;;;;23.25;4.72;;;16.60;73.20;;;;;;7376228;19;20015;-71
2023/05/24 02:42:18;;;;;;;19.70;4.32;;;16.70;73.00;;;;;;7377016;19;20009;-72
2023/05/24 02:44:48;;;;;;;27.00;4.55;;;16.70;72.90;;;;;;7377274;19;20024;-72
2023/05/24 02:47:19;;;;;;;22.63;4.35;;;16.60;72.80;;;;;;7374825;19;20298;-71
2023/05/24 02:49:48;;;;;;;25.48;4.68;;;16.50;73.00;;;;;;7398769;19;20075;-71
2023/05/24 02:52:20;;;;;;;18.95;4.13;;;16.50;73.20;;;;;;7378101;19;20278;-71
2023/05/24 02:54:49;;;;;;;21.45;4.53;;;16.50;73.60;;;;;;7383606;19;20009;-71
2023/05/24 02:57:17;;;;;;;20.42;4.57;;;16.40;73.40;;;;;;7383829;19;20011;-71
2023/05/24 02:59:46;;;;;;;17.15;4.07;;;16.30;73.80;;;;;;7383675;19;20011;-71
2023/05/24 03:02:16;;;;;;;23.88;5.70;;;16.30;73.90;;;;;;7382049;19;20014;-71
2023/05/24 03:04:48;;;;;;;26.33;5.32;;;16.30;74.00;;;;;;7403597;19;20034;-71
2023/05/24 03:07:16;;;;;;;17.02;4.30;;;16.30;74.10;;;;;;7383157;19;20010;-71
2023/05/24 03:09:45;;;;;;;22.42;4.72;;;16.30;74.10;;;;;;7383503;19;20064;-71
2023/05/24 03:12:14;;;;;;;16.98;4.82;;;16.30;74.30;;;;;;7383530;19;20029;-71
2023/05/24 03:14:42;;;;;;;24.70;5.05;;;16.30;74.30;;;;;;7383159;19;20316;-71
2023/05/24 03:17:11;;;;;;;16.58;4.53;;;16.20;74.40;;;;;;7383298;19;20082;-71
2023/05/24 03:19:40;;;;;;;23.73;4.90;;;16.30;74.60;;;;;;7404906;19;20015;-71
2023/05/24 03:22:12;;;;;;;28.55;5.32;;;16.20;75.30;;;;;;7382226;19;20417;-71
2023/05/24 03:24:40;;;;;;;28.08;4.88;;;16.20;74.60;;;;;;7383569;19;20464;-71
2023/05/24 03:27:09;;;;;;;19.38;4.10;;;16.20;74.80;;;;;;7383815;19;20010;-71
2023/05/24 03:29:38;;;;;;;26.92;5.38;;;16.10;75.00;;;;;;7383565;19;20211;-71
2023/05/24 03:32:07;;;;;;;19.98;4.93;;;16.00;75.20;;;;;;7382067;19;20069;-71
2023/05/24 03:34:35;;;;;;;20.48;4.18;;;16.00;75.40;;;;;;7404060;19;20010;-71
2023/05/24 03:37:04;;;;;;;28.63;5.43;;;16.10;75.50;;;;;;7384740;19;20096;-71
2023/05/24 03:39:35;;;;;;;19.65;5.30;;;16.00;75.50;;;;;;7381828;19;19998;-71
2023/05/24 03:42:04;;;;;;;19.73;4.93;;;16.00;75.30;;;;;;7381937;19;20002;-69
2023/05/24 03:44:33;;;;;;;21.45;5.38;;;16.00;75.40;;;;;;7381662;19;20006;-71
2023/05/24 03:47:02;;;;;;;19.92;4.25;;;15.90;75.70;;;;;;7401516;19;20015;-71
2023/05/24 03:49:31;;;;;;;24.77;4.70;;;16.00;75.70;;;;;;7403359;19;20003;-70
2023/05/24 03:51:59;;;;;;;19.90;4.78;;;15.90;75.80;;;;;;7381521;19;20025;-72
2023/05/24 03:54:28;;;;;;;27.65;5.30;;;15.90;75.90;;;;;;7382446;19;20422;-71
2023/05/24 03:57:01;;;;;;;25.35;5.35;;;15.70;76.10;;;;;;7382032;19;20010;-70
2023/05/24 03:59:30;;;;;;;19.40;4.75;;;15.80;76.20;;;;;;7382203;19;20010;-71
2023/05/24 04:01:58;;;;;;;25.40;4.47;;;15.90;76.20;;;;;;7401920;19;20006;-70
2023/05/24 04:04:27;;;;;;;19.45;5.00;;;15.80;76.10;;;;;;7381031;19;20078;-70
2023/05/24 04:06:56;;;;;;;18.85;4.70;;;15.80;76.20;;;;;;7381211;19;20006;-70
2023/05/24 04:09:25;;;;;;;26.20;4.80;;;15.90;76.10;;;;;;7380662;19;19999;-70
2023/05/24 04:11:54;;;;;;;29.65;4.82;;;15.90;76.10;;;;;;7382478;19;20002;-70
2023/05/24 04:14:25;;;;;;;25.02;5.90;;;16.00;75.90;;;;;;7382060;19;19996;-70
2023/05/24 04:16:54;;;;;;;27.35;5.82;;;16.00;75.80;;;;;;7402775;19;20014;-71
2023/05/24 04:19:23;;;;;;;17.27;4.78;;;15.90;75.60;;;;;;7380929;19;20070;-71
2023/05/24 04:21:52;;;;;;;21.73;4.82;;;16.00;75.80;;;;;;7379212;19;20006;-71
2023/05/24 04:24:20;;;;;;;15.93;4.78;;;15.90;75.90;;;;;;7381197;19;19999;-71
2023/05/24 04:26:50;;;;;;;20.63;4.70;;;15.90;76.10;;;;;;7381311;19;20078;-72
2023/05/24 04:29:19;;;;;;;22.70;4.82;;;15.80;76.10;;;;;;7380653;19;20274;-71
2023/05/24 04:31:51;;;;;;;29.02;4.97;;;15.90;75.90;;;;;;7401299;19;20304;-72
2023/05/24 04:34:21;;;;;;;16.65;4.55;;;15.60;76.00;;;;;;7380168;19;20013;-71
2023/05/24 04:36:51;;;;;;;20.98;5.22;;;15.80;76.40;;;;;;7380473;19;20326;-71
2023/05/24 04:39:20;;;;;;;21.65;4.47;;;15.80;76.20;;;;;;7380586;19;20007;-71
2023/05/24 04:41:50;;;;;;;23.85;4.70;;;15.90;76.10;;;;;;7380168;19;20258;-72
2023/05/24 04:44:19;;;;;;;19.50;4.68;;;15.90;76.00;;;;;;7380813;19;20011;-71
2023/05/24 04:46:50;;;;;;;18.00;4.78;;;15.90;75.60;;;;;;7401954;19;20066;-71
2023/05/24 04:49:19;;;;;;;22.70;4.43;;;15.90;75.60;;;;;;7379634;19;20048;-71
2023/05/24 04:51:48;;;;;;;19.35;4.70;;;15.90;75.60;;;;;;7379864;19;20050;-72
2023/05/24 04:54:17;;;;;;;26.45;4.97;;;16.00;75.60;;;;;;7380137;19;20021;-72
2023/05/24 04:56:45;;;;;;;22.48;4.72;;;16.00;75.50;;;;;;7380041;19;20070;-72
2023/05/24 04:59:14;;;;;;;28.55;5.70;;;16.00;75.40;;;;;;7378433;19;20014;-72
2023/05/24 05:01:43;;;;;;;25.00;4.82;;;15.90;75.80;;;;;;7403385;19;20006;-72
2023/05/24 05:04:14;;;;;;;25.70;4.90;;;16.10;76.30;;;;;;7379485;19;20011;-71
2023/05/24 05:06:43;;;;;;;23.48;4.78;;;16.10;76.80;;;;;;7379316;19;20007;-71
2023/05/24 05:09:13;;;;;;;19.20;4.65;;;16.10;75.60;;;;;;7379398;19;20010;-72
2023/05/24 05:11:42;;;;;;;25.95;4.40;;;16.20;75.20;;;;;;7379330;19;20014;-71
2023/05/24 05:14:11;;;;;;;21.67;4.63;;;16.10;74.90;;;;;;7377934;19;20031;-71
2023/05/24 05:16:40;;;;;;;20.42;4.82;;;16.20;75.00;;;;;;7397425;19;20256;-72
2023/05/24 05:19:09;;;;;;;17.13;5.15;;;16.10;74.90;;;;;;7378740;19;20369;-74
2023/05/24 05:21:41;;;;;;;23.52;5.32;;;16.20;74.90;;;;;;7378607;19;20010;-72
2023/05/24 05:24:10;;;;;;;36.40;8.23;;;16.10;74.70;;;;;;7379508;19;20010;-73
2023/05/24 05:26:38;;;;;;;27.48;4.90;;;16.20;75.00;;;;;;7378732;19;20023;-72
2023/05/24 05:29:07;;;;;;;18.00;4.57;;;16.20;74.80;;;;;;7379207;19;20015;-72
2023/05/24 05:31:36;;;;;;;20.23;4.25;;;16.20;74.80;;;;;;7399309;19;20402;-72
2023/05/24 05:34:09;;;;;;;26.80;4.80;;;16.30;74.60;;;;;;7378212;19;20023;-72
2023/05/24 05:36:41;;;;;;;23.10;4.82;;;16.30;74.30;;;;;;7379490;19;20003;-73
2023/05/24 05:39:11;;;;;;;29.10;5.30;;;16.20;73.80;;;;;;7378818;19;20007;-73
2023/05/24 05:41:42;;;;;;;22.92;5.00;;;16.30;74.10;;;;;;7376811;19;20157;-73
2023/05/24 05:44:11;;;;;;;17.42;4.60;;;16.30;73.80;;;;;;7377234;19;20027;-73
2023/05/24 05:46:42;;;;;;;21.05;4.75;;;16.20;73.80;;;;;;7398251;19;20007;-72
2023/05/24 05:49:11;;;;;;;21.75;4.60;;;16.20;73.90;;;;;;7377735;19;20034;-72
2023/05/24 05:51:42;;;;;;;18.10;4.63;;;16.30;74.00;;;;;;7378207;19;20007;-72
2023/05/24 05:54:17;;;;;;;18.27;4.65;;;16.30;73.80;;;;;;7378577;19;20007;-73
2023/05/24 05:56:46;;;;;;;22.80;5.32;;;16.40;73.80;;;;;;7377348;19;20006;-72
2023/05/24 05:59:15;;;;;;;18.13;4.53;;;16.60;73.80;;;;;;7376680;19;20014;-73
2023/05/24 06:01:46;;;;;;;24.08;4.43;;;16.70;73.70;;;;;;7400502;19;20027;-73
2023/05/24 06:04:17;;;;;;;21.95;4.43;;;16.80;73.40;;;;;;7377649;19;20016;-73
2023/05/24 06:06:49;;;;;;;19.83;4.55;;;16.90;72.90;;;;;;7378331;19;20006;-72
2023/05/24 06:09:18;;;;;;;21.92;4.90;;;16.90;72.30;;;;;;7378261;19;20021;-72
2023/05/24 06:11:47;;;;;;;16.27;4.20;;;17.00;72.30;;;;;;7376503;19;20007;-72
2023/05/24 06:14:18;;;;;;;21.70;4.70;;;17.00;72.50;;;;;;7376611;19;20023;-73
2023/05/24 06:16:47;;;;;;;26.52;4.93;;;17.10;72.50;;;;;;7397522;19;20026;-73
2023/05/24 06:19:17;;;;;;;19.13;4.28;;;17.10;72.10;;;;;;7377032;19;20235;-73
2023/05/24 06:21:50;;;;;;;17.27;4.70;;;17.10;71.90;;;;;;7376537;19;20276;-73
2023/05/24 06:24:21;;;;;;;14.80;3.92;;;17.00;72.20;;;;;;7378398;19;20038;-74
2023/05/24 06:26:51;;;;;;;22.30;4.63;;;17.10;72.20;;;;;;7383304;19;20017;-73
2023/05/24 06:29:21;;;;;;;24.00;5.00;;;17.10;72.30;;;;;;7382889;19;20014;-74
2023/05/24 06:31:50;;;;;;;26.13;5.22;;;17.10;72.20;;;;;;7405905;19;20021;-72
2023/05/24 06:34:19;;;;;;;17.98;5.25;;;17.10;71.90;;;;;;7384408;19;20015;-72
2023/05/24 06:36:51;;;;;;;20.25;4.80;;;17.10;71.90;;;;;;7384964;19;20157;-74
2023/05/24 06:39:20;;;;;;;17.75;4.68;;;17.20;72.10;;;;;;7383246;19;20026;-73
2023/05/24 06:41:50;;;;;;;16.67;4.72;;;17.20;71.40;;;;;;7384263;19;20078;-73
2023/05/24 06:44:18;;;;;;;33.75;5.40;;;17.10;71.40;;;;;;7384827;19;20011;-74
2023/05/24 06:46:47;;;;;;;31.48;6.18;;;17.00;71.80;;;;;;7406558;19;20058;-73
2023/05/24 06:49:16;;;;;;;21.15;5.10;;;16.70;72.00;;;;;;7383602;19;20007;-74
2023/05/24 06:51:44;;;;;;;18.45;4.65;;;16.80;72.50;;;;;;7384026;19;20007;-73
2023/05/24 06:54:16;;;;;;;17.55;4.97;;;16.80;72.50;;;;;;7384067;19;20002;-74
2023/05/24 06:56:45;;;;;;;27.17;4.60;;;16.90;72.30;;;;;;7385255;19;20003;-73
2023/05/24 06:59:13;;;;;;;23.42;5.03;;;17.00;72.00;;;;;;7384389;19;20007;-74
2023/05/24 07:01:42;;;;;;;24.15;5.20;;;17.10;72.00;;;;;;7406101;19;20015;-73
2023/05/24 07:04:11;;;;;;;27.38;5.10;;;17.10;72.20;;;;;;7383264;19;20307;-73
2023/05/24 07:06:40;;;;;;;22.65;5.53;;;17.10;71.80;;;;;;7383671;19;20402;-73
2023/05/24 07:09:09;;;;;;;21.67;5.07;;;17.00;71.60;;;;;;7384034;19;20066;-72
2023/05/24 07:11:40;;;;;;;26.45;5.15;;;17.10;72.00;;;;;;7384146;19;20007;-73
2023/05/24 07:14:09;;;;;;;26.40;5.00;;;17.10;71.60;;;;;;7380798;19;20015;-73
2023/05/24 07:16:37;;;;;;;17.08;4.88;;;17.10;70.90;;;;;;7405731;19;20139;-73
2023/05/24 07:19:06;;;;;;;19.63;4.88;;;17.10;70.60;;;;;;7383440;19;20006;-73
2023/05/24 07:21:36;;;;;;;21.48;4.70;;;17.00;70.80;;;;;;7383545;19;20007;-73
2023/05/24 07:24:05;;;;;;;15.20;4.55;;;17.00;71.30;;;;;;7384587;19;20007;-73
2023/05/24 07:26:34;;;;;;;21.75;4.60;;;17.10;71.80;;;;;;7386017;19;20051;-73
2023/05/24 07:29:05;;;;;;;18.38;4.57;;;17.20;71.30;;;;;;7393906;19;20006;-73
2023/05/24 07:31:35;;;;;;;25.10;5.03;;;17.20;70.70;;;;;;7407004;19;20018;-73
2023/05/24 07:34:04;;;;;;;21.50;4.70;;;17.30;71.30;;;;;;7384486;19;20062;-74
2023/05/24 07:36:33;;;;;;;24.17;4.85;;;17.40;71.80;;;;;;7383009;19;20006;-73
2023/05/24 07:39:04;;;;;;;31.27;4.47;;;17.50;71.30;;;;;;7382329;19;20009;-73
2023/05/24 07:41:32;;;;;;;27.73;4.35;;;17.60;71.30;;;;;;7384537;19;20007;-73
2023/05/24 07:44:01;;;;;;;32.30;4.75;;;17.60;71.00;;;;;;7407035;19;20007;-74
2023/05/24 07:46:32;;;;;;;20.60;4.30;;;17.60;70.50;;;;;;7384549;19;20011;-73
2023/05/24 07:49:01;;;;;;;15.30;4.10;;;17.60;69.60;;;;;;7383813;19;20003;-74
2023/05/24 07:51:31;;;;;;;24.17;4.65;;;17.70;69.90;;;;;;7382592;19;20010;-75
2023/05/24 07:54:00;;;;;;;20.90;4.40;;;17.70;69.40;;;;;;7381653;19;20433;-73
2023/05/24 07:56:28;;;;;;;25.65;4.47;;;17.70;68.70;;;;;;7382380;19;20040;-74
2023/05/24 07:59:02;;;;;;;29.17;4.53;;;17.50;67.80;;;;;;7401887;19;20032;-74
2023/05/24 08:01:35;;;;;;;18.58;4.63;;;17.60;68.40;;;;;;7383654;19;19999;-73
2023/05/24 08:04:07;;;;;;;13.65;4.15;;;17.50;68.50;;;;;;7381276;19;20637;-72
2023/05/24 08:06:36;;;;;;;29.23;4.72;;;17.60;68.80;;;;;;7381128;19;20007;-72
2023/05/24 08:09:06;;;;;;;24.52;4.47;;;17.40;68.10;;;;;;7381667;19;20338;-72
2023/05/24 08:11:35;;;;;;;20.20;4.97;;;17.40;68.30;;;;;;7381609;19;20029;-72
2023/05/24 08:14:04;;;;;;;28.65;4.78;;;17.40;67.80;;;;;;7380947;19;20265;-72
2023/05/24 08:16:36;;;;;;;20.35;4.25;;;17.10;68.40;;;;;;7403285;19;20030;-72
2023/05/24 08:19:05;;;;;;;21.15;4.90;;;17.00;68.40;;;;;;7381483;19;20291;-73
2023/05/24 08:21:34;;;;;;;24.77;4.85;;;17.00;68.70;;;;;;7380546;19;20262;-71
2023/05/24 08:24:03;;;;;;;24.00;4.65;;;17.10;68.50;;;;;;7380829;19;20264;-73
2023/05/24 08:26:31;;;;;;;20.73;5.07;;;17.10;68.60;;;;;;7380789;19;20011;-72
2023/05/24 08:29:01;;;;;;;30.75;4.22;;;17.30;68.60;;;;;;7402577;19;20011;-73
2023/05/24 08:31:31;;;;;;;18.75;4.55;;;17.40;68.40;;;;;;7381532;19;20007;-72
2023/05/24 08:34:03;;;;;;;21.05;4.25;;;17.50;69.00;;;;;;7380419;19;20103;-73
2023/05/24 08:36:31;;;;;;;23.05;4.47;;;17.60;68.70;;;;;;7382769;19;20019;-72
2023/05/24 08:39:00;;;;;;;23.00;4.47;;;17.70;68.80;;;;;;7383227;19;20006;-72
2023/05/24 08:41:31;;;;;;;18.30;5.18;;;17.80;68.70;;;;;;7383403;19;20003;-72
2023/05/24 08:44:02;;;;;;;;;;;18.00;68.10;;;;;;7402192;19;20010;-72
2023/05/24 08:46:31;;;;;;;41.05;6.50;;;18.00;66.70;;;;;;7380419;19;19907;-72
2023/05/24 08:49:03;;;;;;;17.20;3.85;;;18.00;68.10;;;;;;7379265;19;20075;-72
2023/05/24 08:51:32;;;;;;;18.27;3.80;;;17.60;65.90;;;;;;7379542;19;20057;-72
2023/05/24 08:54:01;;;;;;;17.58;4.30;;;17.70;67.10;;;;;;7380212;19;20074;-72
2023/05/24 08:56:30;;;;;;;19.13;4.07;;;17.80;66.60;;;;;;7383020;19;20394;-72
2023/05/24 08:58:59;;;;;;;14.80;3.80;;;17.80;66.80;;;;;;7403135;19;20017;-74
2023/05/24 09:01:28;;;;;;;22.67;3.42;;;17.90;66.30;;;;;;7383393;19;20058;-73
2023/05/24 09:03:58;;;;;;;11.10;3.22;;;17.90;65.00;;;;;;7379635;19;20006;-73
2023/05/24 09:06:29;;;;;;;12.60;3.60;;;18.00;64.10;;;;;;7380087;19;20003;-73
2023/05/24 09:09:00;;;;;;;15.32;3.35;;;18.10;64.20;;;;;;7379108;19;20017;-73
2023/05/24 09:11:29;;;;;;;19.00;3.83;;;18.20;64.20;;;;;;7378179;19;20014;-73
2023/05/24 09:13:59;;;;;;;48.80;4.30;;;18.20;63.30;;;;;;7401116;19;20007;-73
2023/05/24 09:16:28;;;;;;;20.55;3.60;;;18.30;62.70;;;;;;7379123;19;20007;-73
2023/05/24 09:18:56;;;;;;;21.95;4.57;;;18.30;63.60;;;;;;7378271;19;20488;-73
2023/05/24 09:21:28;;;;;;;14.68;3.45;;;18.30;62.00;;;;;;7379180;19;20058;-73
2023/05/24 09:23:57;;;;;;;20.67;3.47;;;18.30;62.60;;;;;;7378050;19;20247;-72
2023/05/24 09:26:29;;;;;;;19.48;3.47;;;18.20;62.40;;;;;;7377548;19;20118;-72
2023/05/24 09:28:59;;;;;;;10.27;3.03;;;18.10;62.00;;;;;;7401190;19;20119;-72
2023/05/24 09:31:34;;;;;;;14.55;3.45;;;17.90;60.90;;;;;;7377796;19;20048;-72
2023/05/24 09:34:03;;;;;;;14.30;3.08;;;17.80;61.30;;;;;;7377673;19;20006;-72
2023/05/24 09:36:35;;;;;;;14.95;2.70;;;17.60;59.70;;;;;;7378977;19;20070;-73
2023/05/24 09:39:12;;;;;;;16.90;3.55;;;17.50;60.20;;;;;;7378630;19;20003;-73
2023/05/24 09:41:45;;;;;;;16.00;3.22;;;17.60;61.30;;;;;;7379293;19;20002;-72
2023/05/24 09:44:15;;;;;;;14.13;3.17;;;17.90;61.30;;;;;;7376656;19;20070;-72
2023/05/24 09:46:45;;;;;;;20.70;2.70;;;17.90;60.00;;;;;;7400917;19;20014;-73
2023/05/24 09:49:13;;;;;;;14.15;2.55;;;17.80;59.30;;;;;;7379615;19;20043;-73
2023/05/24 09:51:45;;;;;;;25.02;3.00;;;17.90;59.80;;;;;;7381621;19;20002;-73
2023/05/24 09:54:14;;;;;;;11.10;2.47;;;18.10;59.90;;;;;;7381941;19;20010;-73
2023/05/24 09:56:44;;;;;;;16.17;2.55;;;18.20;57.50;;;;;;7380120;19;20007;-73
2023/05/24 09:59:12;;;;;;;5.68;2.05;;;18.40;57.20;;;;;;7378893;19;20036;-73
2023/05/24 10:01:41;;;;;;;11.73;2.38;;;18.50;57.40;;;;;;7403160;19;20014;-73
2023/05/24 10:04:10;;;;;;;15.38;2.65;;;18.40;55.80;;;;;;7382668;19;20022;-73
2023/05/24 10:06:39;;;;;;;6.55;2.45;;;18.40;56.30;;;;;;7386963;19;20003;-73
2023/05/24 10:09:12;;;;;;;7.30;2.47;;;18.40;55.00;;;;;;7388415;19;20003;-73
2023/05/24 10:11:43;;;;;;;11.85;2.38;;;18.40;55.70;;;;;;7389024;19;20019;-73
2023/05/24 10:14:12;;;;;;;8.70;2.57;;;18.50;55.50;;;;;;7387446;19;20003;-73
2023/05/24 10:16:41;;;;;;;9.52;2.78;;;18.70;56.80;;;;;;7407135;19;20026;-73
2023/05/24 10:19:10;;;;;;;15.82;2.17;;;18.80;56.60;;;;;;7384576;19;20009;-73
2023/05/24 10:21:43;;;;;;;12.25;2.75;;;18.90;57.50;;;;;;7383996;19;20003;-73
2023/05/24 10:24:17;;;;;;;8.65;1.98;;;19.00;56.10;;;;;;7384345;19;20255;-73
2023/05/24 10:26:48;;;;;;;9.15;2.13;;;18.90;54.90;;;;;;7385376;19;19999;-74
2023/05/24 10:29:25;;;;;;;8.25;2.15;;;18.90;55.30;;;;;;7382212;19;20031;-73
2023/05/24 10:31:55;;;;;;;11.43;2.40;;;19.00;55.70;;;;;;7403733;19;20026;-73
2023/05/24 10:34:24;;;;;;;11.70;2.83;;;19.10;54.70;;;;;;7383840;19;20013;-73
2023/05/24 10:36:53;;;;;;;13.43;2.25;;;19.20;54.70;;;;;;7383843;19;20007;-74
2023/05/24 10:39:26;;;;;;;5.88;1.92;;;19.30;55.20;;;;;;7384645;19;20027;-72
2023/05/24 10:41:58;;;;;;;9.60;2.50;;;19.40;55.20;;;;;;7384082;19;20019;-72
2023/05/24 10:44:31;;;;;;;13.65;2.83;;;19.60;54.50;;;;;;7382875;19;20006;-73
2023/05/24 10:47:14;;;;;;;11.38;2.20;;;19.60;53.50;;;;;;7405645;19;20013;-72
2023/05/24 10:49:51;;;;;;;8.90;2.03;;;19.70;54.30;;;;;;7384049;19;19999;-72
2023/05/24 10:52:20;;;;;;;9.20;2.30;;;19.70;53.30;;;;;;7383454;19;20034;-73
2023/05/24 10:55:09;;;;;;;5.22;2.13;;;19.80;52.20;;;;;;7383899;19;20051;-73
2023/05/24 10:57:38;;;;;;;7.40;2.28;;;19.80;51.40;;;;;;7382961;19;20011;-73
2023/05/24 11:00:44;;;;;;;4.88;1.90;;;19.90;52.00;;;;;;7384357;19;20070;-73
2023/05/24 11:03:22;;;;;;;7.75;2.60;;;19.90;51.30;;;;;;7382543;19;20231;-73
2023/05/24 11:05:53;;;;;;;11.65;2.60;;;20.00;51.30;;;;;;7383805;19;20032;-73
2023/05/24 11:08:31;;;;;;;7.53;2.45;;;20.10;51.10;;;;;;7381240;19;20016;-73
2023/05/24 11:11:13;;;;;;;9.52;2.40;;;20.10;52.00;;;;;;7402572;19;20007;-73
2023/05/24 11:13:42;;;;;;;8.18;2.30;;;20.20;52.30;;;;;;7379018;19;20003;-73
2023/05/24 11:16:12;;;;;;;8.43;2.30;;;20.30;52.30;;;;;;7380417;19;20028;-73
2023/05/24 11:18:41;;;;;;;9.38;2.17;;;20.30;51.70;;;;;;7381384;19;20003;-74
2023/05/24 11:21:10;;;;;;;13.23;2.35;;;20.30;52.50;;;;;;7384028;19;20441;-74
2023/05/24 11:23:39;;;;;;;8.23;2.35;;;20.50;52.50;;;;;;7383251;19;20018;-73
2023/05/24 11:26:11;;;;;;;10.00;2.30;;;20.50;52.40;;;;;;7381572;19;20051;-73
2023/05/24 11:28:41;;;;;;;9.95;1.95;;;20.50;51.40;;;;;;7402974;19;20014;-73
2023/05/24 11:31:11;;;;;;;4.53;1.75;;;20.50;52.30;;;;;;7380789;19;20015;-73
2023/05/24 11:33:43;;;;;;;6.90;2.45;;;20.60;52.90;;;;;;7381585;19;20009;-73
2023/05/24 11:36:12;;;;;;;8.48;2.15;;;20.60;52.90;;;;;;7379881;19;20002;-73
2023/05/24 11:38:41;;;;;;;14.07;2.40;;;20.80;52.50;;;;;;7382243;19;20369;-73
2023/05/24 11:41:13;;;;;;;8.20;2.42;;;20.70;52.40;;;;;;7382006;19;20014;-72
2023/05/24 11:43:41;;;;;;;;;;;20.80;52.80;;;;;;7401893;19;20031;-73
2023/05/24 11:46:10;;;;;;;6.45;2.58;;;20.90;53.20;;;;;;7381377;19;19911;-72
2023/05/24 11:48:40;;;;;;;9.00;2.58;;;20.90;53.40;;;;;;7381079;19;20003;-72
2023/05/24 11:51:10;;;;;;;9.00;2.53;;;20.90;53.20;;;;;;7382886;19;20006;-72
2023/05/24 11:53:39;;;;;;;7.65;2.08;;;21.00;53.10;;;;;;7380549;19;20063;-72
2023/05/24 11:56:08;;;;;;;7.10;2.30;;;21.10;53.40;;;;;;7381820;19;20297;-72
2023/05/24 11:58:49;;;;;;;5.68;2.30;;;21.00;53.40;;;;;;7401645;19;20028;-72
2023/05/24 12:01:28;;;;;;;6.13;2.30;;;20.90;53.60;;;;;;7381082;19;20011;-73
2023/05/24 12:03:56;;;;;;;6.00;2.50;;;21.00;54.00;;;;;;7379742;19;20066;-72
2023/05/24 12:06:27;;;;;;;10.57;2.50;;;21.10;53.80;;;;;;7381482;19;20015;-73
2023/05/24 12:08:56;;;;;;;9.57;2.70;;;21.00;54.00;;;;;;7380523;19;20006;-73
2023/05/24 12:11:25;;;;;;;14.45;2.70;;;21.10;54.00;;;;;;7381765;19;20003;-73
2023/05/24 12:13:56;;;;;;;8.23;2.33;;;21.10;54.00;;;;;;7401718;19;20061;-74
2023/05/24 12:16:25;;;;;;;;;;;21.20;54.00;;;;;;7384181;19;20066;-74
2023/05/24 12:18:54;;;;;;;7.18;2.22;;;21.30;54.20;;;;;;7383952;19;19903;-74
2023/05/24 12:21:23;;;;;;;9.40;2.28;;;21.40;54.30;;;;;;7384633;19;20011;-74
2023/05/24 12:23:51;;;;;;;11.68;2.90;;;21.30;55.00;;;;;;7381548;19;20283;-74
2023/05/24 12:26:22;;;;;;;8.00;2.50;;;21.30;53.50;;;;;;7380295;19;20079;-75
2023/05/24 12:29:00;;;;;;;18.42;3.03;;;21.40;53.90;;;;;;7402262;19;20010;-74
2023/05/24 12:31:28;;;;;;;5.97;2.58;;;21.40;54.70;;;;;;7381604;19;20021;-72
2023/05/24 12:33:57;;;;;;;9.45;2.83;;;21.50;55.00;;;;;;7382105;19;20007;-72
2023/05/24 12:36:26;;;;;;;9.48;2.53;;;21.50;54.20;;;;;;7382216;19;20010;-73
2023/05/24 12:38:55;;;;;;;8.68;2.42;;;21.50;53.80;;;;;;7382306;19;20507;-73
2023/05/24 12:41:24;;;;;;;8.93;2.40;;;21.50;54.00;;;;;;7381255;19;20064;-74
2023/05/24 12:43:59;;;;;;;15.75;2.22;;;21.40;54.00;;;;;;7400635;19;20362;-73
2023/05/24 12:46:28;;;;;;;11.93;2.80;;;21.30;55.00;;;;;;7382598;19;20331;-72
2023/05/24 12:48:57;;;;;;;7.63;2.70;;;21.50;55.70;;;;;;7379414;19;20268;-73
2023/05/24 12:51:25;;;;;;;9.60;2.88;;;21.50;55.60;;;;;;7379949;19;20381;-73
2023/05/24 12:53:54;;;;;;;7.68;2.60;;;21.50;55.00;;;;;;7379456;19;20010;-73